createdAt,value
2023-03-26T00:01:33.413Z,98678.00
2023-03-26T00:04:01.307Z,98685.00
2023-03-26T00:06:34.872Z,98684.00
2023-03-26T00:09:01.754Z,98682.00
2023-03-26T00:11:30.045Z,98682.00
2023-03-26T00:13:58.214Z,98686.00
2023-03-26T00:16:29.135Z,98674.00
2023-03-26T00:18:57.829Z,98676.00
2023-03-26T00:21:28.391Z,98669.00
2023-03-26T00:24:04.825Z,98672.00
2023-03-26T00:26:37.575Z,98657.00
2023-03-26T00:29:06.711Z,98662.00
2023-03-26T00:31:35.706Z,98665.00
2023-03-26T00:34:03.838Z,98669.00
2023-03-26T00:36:30.991Z,98664.00
2023-03-26T00:38:58.038Z,98658.00
2023-03-26T00:41:27.012Z,98654.00
2023-03-26T00:43:57.899Z,98660.00
2023-03-26T00:46:26.724Z,98656.00
2023-03-26T00:48:54.187Z,98651.00
2023-03-26T00:51:22.004Z,98648.00
2023-03-26T00:53:50.950Z,98644.00
2023-03-26T00:56:18.859Z,98633.00
2023-03-26T00:58:47.614Z,98648.00
2023-03-26T01:01:21.522Z,98631.00
2023-03-26T01:04:04.730Z,98634.00
2023-03-26T01:06:38.580Z,98628.00
2023-03-26T01:09:21.567Z,98613.00
2023-03-26T01:11:50.227Z,98611.00
2023-03-26T01:14:25.018Z,98613.00
2023-03-26T01:16:55.476Z,98601.00
2023-03-26T01:19:40.472Z,98600.00
2023-03-26T01:22:13.238Z,98589.00
2023-03-26T01:24:40.888Z,98583.00
2023-03-26T01:27:18.780Z,98588.00
2023-03-26T01:29:48.943Z,98582.00
2023-03-26T01:32:48.736Z,98581.00
2023-03-26T01:35:29.048Z,98570.00
2023-03-26T01:38:22.750Z,98567.00
2023-03-26T01:41:37.753Z,98550.00
2023-03-26T01:44:11.498Z,98546.00
2023-03-26T01:46:39.388Z,98518.00
2023-03-26T01:49:13.304Z,98514.00
2023-03-26T01:51:43.092Z,98506.00
2023-03-26T01:54:19.014Z,98494.00
2023-03-26T01:57:39.036Z,98489.00
2023-03-26T02:00:36.270Z,98483.00
2023-03-26T02:03:26.401Z,98468.00
2023-03-26T02:06:44.458Z,98465.00
2023-03-26T02:09:23.984Z,98464.00
2023-03-26T02:11:51.508Z,98459.00
2023-03-26T02:14:18.623Z,98447.00
2023-03-26T02:16:47.004Z,98443.00
2023-03-26T02:19:21.338Z,98445.00
2023-03-26T02:21:52.024Z,98434.00
2023-03-26T02:24:20.133Z,98431.00
2023-03-26T02:26:47.044Z,98423.00
2023-03-26T02:29:20.226Z,98420.00
2023-03-26T02:31:50.986Z,98420.00
2023-03-26T02:34:18.118Z,98418.00
2023-03-26T02:36:45.027Z,98424.00
2023-03-26T02:39:14.305Z,98407.00
2023-03-26T02:41:41.299Z,98412.00
2023-03-26T02:44:08.257Z,98415.00
2023-03-26T02:46:35.362Z,98403.00
2023-03-26T02:49:02.200Z,98388.00
2023-03-26T02:51:29.109Z,98392.00
2023-03-26T02:53:56.067Z,98379.00
2023-03-26T02:56:22.924Z,98371.00
2023-03-26T02:58:49.798Z,98359.00
2023-03-26T03:01:18.337Z,98350.00
2023-03-26T03:03:47.454Z,98357.00
2023-03-26T03:06:18.969Z,98370.00
2023-03-26T03:08:46.887Z,98370.00
2023-03-26T03:11:24.531Z,98367.00
2023-03-26T03:13:52.778Z,98342.00
2023-03-26T03:16:20.379Z,98346.00
2023-03-26T03:18:54.706Z,98342.00
2023-03-26T03:21:27.635Z,98336.00
2023-03-26T03:23:59.978Z,98329.00
2023-03-26T03:26:29.627Z,98316.00
2023-03-26T03:28:58.154Z,98312.00
2023-03-26T03:31:26.701Z,98314.00
2023-03-26T03:33:53.881Z,98304.00
2023-03-26T03:36:22.778Z,98306.00
2023-03-26T03:38:51.109Z,98295.00
2023-03-26T03:41:18.811Z,98293.00
2023-03-26T03:43:46.246Z,98294.00
2023-03-26T03:46:13.436Z,98291.00
2023-03-26T03:48:40.443Z,98294.00
2023-03-26T03:51:07.336Z,98286.00
2023-03-26T03:53:37.188Z,98287.00
2023-03-26T03:56:10.144Z,98278.00
2023-03-26T03:58:37.257Z,98275.00
2023-03-26T04:01:04.672Z,98280.00
2023-03-26T04:03:33.393Z,98266.00
2023-03-26T04:06:01.769Z,98274.00
2023-03-26T04:08:28.593Z,98262.00
2023-03-26T04:10:55.685Z,98234.00
2023-03-26T04:13:22.553Z,98238.00
2023-03-26T04:15:49.450Z,98242.00
2023-03-26T04:18:16.385Z,98239.00
2023-03-26T04:20:48.007Z,98240.00
2023-03-26T04:23:18.045Z,98238.00
2023-03-26T04:25:50.622Z,98231.00
2023-03-26T04:28:30.856Z,98215.00
2023-03-26T04:31:01.190Z,98210.00
2023-03-26T04:33:32.704Z,98209.00
2023-03-26T04:36:03.749Z,98199.00
2023-03-26T04:38:39.172Z,98184.00
2023-03-26T04:41:07.904Z,98184.00
2023-03-26T04:43:47.046Z,98180.00
2023-03-26T04:46:14.576Z,98160.00
2023-03-26T04:48:41.511Z,98146.00
2023-03-26T04:51:10.215Z,98152.00
2023-03-26T04:53:37.210Z,98154.00
2023-03-26T04:56:39.043Z,98144.00
2023-03-26T04:59:08.098Z,98144.00
2023-03-26T05:01:37.825Z,98136.00
2023-03-26T05:04:05.200Z,98137.00
2023-03-26T05:06:34.267Z,98122.00
2023-03-26T05:09:04.173Z,98118.00
2023-03-26T05:11:31.022Z,98120.00
2023-03-26T05:13:57.971Z,98103.00
2023-03-26T05:16:25.143Z,98112.00
2023-03-26T05:18:52.570Z,98108.00
2023-03-26T05:21:19.606Z,98092.00
2023-03-26T05:23:46.693Z,98086.00
2023-03-26T05:26:13.705Z,98079.00
2023-03-26T05:28:40.926Z,98083.00
2023-03-26T05:31:08.252Z,98078.00
2023-03-26T05:33:35.526Z,98083.00
2023-03-26T05:36:09.372Z,98068.00
2023-03-26T05:38:37.073Z,98057.00
2023-03-26T05:41:08.480Z,98048.00
2023-03-26T05:43:35.916Z,98039.00
2023-03-26T05:46:03.714Z,98033.00
2023-03-26T05:48:31.187Z,98044.00
2023-03-26T05:50:59.122Z,98037.00
2023-03-26T05:53:27.722Z,98026.00
2023-03-26T05:55:58.289Z,98010.00
2023-03-26T05:58:32.386Z,98022.00
2023-03-26T06:01:10.193Z,98011.00
2023-03-26T06:03:40.261Z,98007.00
2023-03-26T06:06:10.323Z,98005.00
2023-03-26T06:08:37.286Z,98002.00
2023-03-26T06:11:10.273Z,97994.00
2023-03-26T06:13:37.163Z,97994.00
2023-03-26T06:16:04.628Z,97978.00
2023-03-26T06:18:31.610Z,97980.00
2023-03-26T06:20:58.480Z,97960.00
2023-03-26T06:23:25.668Z,97953.00
2023-03-26T06:25:52.503Z,97960.00
2023-03-26T06:28:19.299Z,97969.00
2023-03-26T06:30:46.105Z,97960.00
2023-03-26T06:33:12.959Z,97953.00
2023-03-26T06:35:39.860Z,97952.00
2023-03-26T06:38:07.780Z,97944.00
2023-03-26T06:40:35.232Z,97961.00
2023-03-26T06:43:08.301Z,97951.00
2023-03-26T06:45:38.097Z,97945.00
2023-03-26T06:48:05.554Z,97949.00
2023-03-26T06:50:32.986Z,97936.00
2023-03-26T06:53:00.282Z,97941.00
2023-03-26T06:55:27.679Z,97943.00
2023-03-26T06:57:58.095Z,97951.00
2023-03-26T07:00:25.466Z,97947.00
2023-03-26T07:02:52.560Z,97940.00
2023-03-26T07:05:19.483Z,97936.00
2023-03-26T07:07:47.742Z,97932.00
2023-03-26T07:10:15.227Z,97938.00
2023-03-26T07:12:42.880Z,97937.00
2023-03-26T07:15:10.532Z,97947.00
2023-03-26T07:17:37.652Z,97949.00
2023-03-26T07:20:08.014Z,97941.00
2023-03-26T07:22:36.385Z,97948.00
2023-03-26T07:25:03.916Z,97947.00
2023-03-26T07:28:13.605Z,97960.00
2023-03-26T07:31:07.379Z,97955.00
2023-03-26T07:33:57.287Z,97965.00
2023-03-26T07:36:56.417Z,97958.00
2023-03-26T07:39:58.788Z,97958.00
2023-03-26T07:42:31.132Z,97942.00
2023-03-26T07:45:14.370Z,97942.00
2023-03-26T07:47:45.105Z,97956.00
2023-03-26T07:50:19.143Z,97955.00
2023-03-26T07:52:46.536Z,97959.00
2023-03-26T07:55:16.241Z,97963.00
2023-03-26T07:58:04.988Z,97952.00
2023-03-26T08:00:58.772Z,97961.00
2023-03-26T08:04:24.199Z,97962.00
2023-03-26T08:07:31.661Z,97982.00
2023-03-26T08:10:17.089Z,97992.00
2023-03-26T08:13:02.451Z,97998.00
2023-03-26T08:15:33.217Z,97995.00
2023-03-26T08:18:27.387Z,97996.00
2023-03-26T08:21:08.008Z,98001.00
2023-03-26T08:23:56.398Z,98002.00
2023-03-26T08:26:34.600Z,97996.00
2023-03-26T08:29:27.405Z,98005.00
2023-03-26T08:31:57.579Z,98000.00
2023-03-26T08:34:24.452Z,98013.00
2023-03-26T08:36:51.696Z,97994.00
2023-03-26T08:39:19.718Z,98014.00
2023-03-26T08:42:07.366Z,98030.00
2023-03-26T08:45:03.833Z,98028.00
2023-03-26T08:48:31.353Z,98017.00
2023-03-26T08:51:40.865Z,97998.00
2023-03-26T08:54:25.947Z,98008.00
2023-03-26T08:57:11.665Z,97998.00
2023-03-26T09:00:47.491Z,98006.00
2023-03-26T09:04:16.231Z,97999.00
2023-03-26T09:07:21.976Z,98001.00
2023-03-26T09:10:26.609Z,97992.00
2023-03-26T09:13:27.608Z,97989.00
2023-03-26T09:16:34.410Z,97988.00
2023-03-26T09:19:43.337Z,97977.00
2023-03-26T09:23:14.015Z,97973.00
2023-03-26T09:26:11.065Z,97989.00
2023-03-26T09:29:25.935Z,97985.00
2023-03-26T09:33:03.372Z,97991.00
2023-03-26T09:36:12.131Z,97997.00
2023-03-26T09:38:57.455Z,97987.00
2023-03-26T09:41:52.510Z,97990.00
2023-03-26T09:44:47.236Z,97989.00
2023-03-26T09:47:40.357Z,97987.00
2023-03-26T09:50:41.209Z,97986.00
2023-03-26T09:53:57.029Z,98003.00
2023-03-26T09:57:07.585Z,98005.00
2023-03-26T10:00:02.191Z,98007.00
2023-03-26T10:02:49.323Z,98014.00
2023-03-26T10:05:44.773Z,98013.00
2023-03-26T10:08:40.108Z,98006.00
2023-03-26T10:11:47.896Z,97999.00
2023-03-26T10:15:09.472Z,97997.00
2023-03-26T10:18:27.368Z,97990.00
2023-03-26T10:21:30.248Z,97989.00
2023-03-26T10:24:16.146Z,97993.00
2023-03-26T10:27:08.958Z,97990.00
2023-03-26T10:30:16.754Z,97992.00
2023-03-26T10:33:18.431Z,97997.00
2023-03-26T10:36:26.832Z,98004.00
2023-03-26T10:39:09.345Z,98000.00
2023-03-26T10:41:51.293Z,97992.00
2023-03-26T10:44:33.163Z,97983.00
2023-03-26T10:47:24.109Z,97986.00
2023-03-26T10:50:22.832Z,97986.00
2023-03-26T10:53:25.834Z,97975.00
2023-03-26T10:56:17.564Z,97971.00
2023-03-26T10:58:49.497Z,97970.00
2023-03-26T11:01:52.656Z,97970.00
2023-03-26T11:04:34.651Z,97964.00
2023-03-26T11:07:24.470Z,97958.00
2023-03-26T11:10:39.274Z,97955.00
2023-03-26T11:13:56.091Z,97971.00
2023-03-26T11:17:04.734Z,97941.00
2023-03-26T11:19:50.461Z,97968.00
2023-03-26T11:22:46.462Z,97948.00
2023-03-26T11:25:39.656Z,97945.00
2023-03-26T11:28:19.400Z,97929.00
2023-03-26T11:31:05.805Z,97922.00
2023-03-26T11:33:45.341Z,97922.00
2023-03-26T11:36:23.761Z,97922.00
2023-03-26T11:38:51.665Z,97914.00
2023-03-26T11:41:26.636Z,97899.00
2023-03-26T11:44:08.915Z,97904.00
2023-03-26T11:46:42.596Z,97903.00
2023-03-26T11:49:16.574Z,97894.00
2023-03-26T11:51:47.505Z,97893.00
2023-03-26T11:54:15.274Z,97885.00
2023-03-26T11:57:18.505Z,97906.00
2023-03-26T12:00:06.533Z,97886.00
2023-03-26T12:02:41.558Z,97888.00
2023-03-26T12:05:20.394Z,97878.00
2023-03-26T12:07:57.291Z,97871.00
2023-03-26T12:10:42.651Z,97873.00
2023-03-26T12:13:21.673Z,97865.00
2023-03-26T12:15:49.662Z,97841.00
2023-03-26T12:18:35.514Z,97830.00
2023-03-26T12:21:15.002Z,97835.00
2023-03-26T12:24:01.006Z,97822.00
2023-03-26T12:26:41.792Z,97812.00
2023-03-26T12:29:19.115Z,97817.00
2023-03-26T12:31:57.276Z,97834.00
2023-03-26T12:34:34.788Z,97834.00
2023-03-26T12:37:05.316Z,97837.00
2023-03-26T12:40:10.664Z,97846.00
2023-03-26T12:44:46.259Z,97859.00
2023-03-26T12:45:38.227Z,97846.00
2023-03-26T12:48:05.924Z,97839.00
2023-03-26T12:51:01.013Z,97832.00
2023-03-26T12:53:49.291Z,97835.00
2023-03-26T12:57:20.265Z,97834.00
2023-03-26T13:00:21.149Z,97830.00
2023-03-26T13:03:06.836Z,97828.00
2023-03-26T13:05:52.141Z,97815.00
2023-03-26T13:09:03.486Z,97810.00
2023-03-26T13:12:19.528Z,97806.00
2023-03-26T13:15:36.632Z,97827.00
2023-03-26T13:18:48.824Z,97821.00
2023-03-26T13:21:46.832Z,97811.00
2023-03-26T13:24:24.642Z,97807.00
2023-03-26T13:26:54.291Z,97823.00
2023-03-26T13:29:31.406Z,97818.00
2023-03-26T13:32:24.299Z,97836.00
2023-03-26T13:35:29.638Z,97834.00
2023-03-26T13:38:11.535Z,97836.00
2023-03-26T13:40:52.108Z,97854.00
2023-03-26T13:43:58.355Z,97881.00
2023-03-26T13:46:38.903Z,97869.00
2023-03-26T13:49:15.554Z,97878.00
2023-03-26T13:51:56.742Z,97869.00
2023-03-26T13:54:51.429Z,97868.00
2023-03-26T13:57:41.622Z,97888.00
2023-03-26T14:00:23.169Z,97918.00
2023-03-26T14:03:03.982Z,97940.00
2023-03-26T14:05:48.306Z,97954.00
2023-03-26T14:08:33.109Z,97980.00
2023-03-26T14:11:11.298Z,97989.00
2023-03-26T14:13:50.459Z,98022.00
2023-03-26T14:16:41.899Z,98033.00
2023-03-26T14:20:17.368Z,98025.00
2023-03-26T14:22:56.165Z,98008.00
2023-03-26T14:25:57.015Z,98010.00
2023-03-26T14:29:13.716Z,97992.00
2023-03-26T14:32:24.473Z,97987.00
2023-03-26T14:35:42.181Z,97956.00
2023-03-26T14:38:45.877Z,97948.00
2023-03-26T14:41:33.424Z,97949.00
2023-03-26T14:44:56.870Z,97972.00
2023-03-26T14:47:27.611Z,97988.00
2023-03-26T14:50:42.739Z,97986.00
2023-03-26T14:53:38.334Z,97984.00
2023-03-26T14:56:33.279Z,97997.00
2023-03-26T14:59:31.543Z,98002.00
2023-03-26T15:02:22.576Z,97997.00
2023-03-26T15:05:14.283Z,97998.00
2023-03-26T15:08:33.676Z,98014.00
2023-03-26T15:11:27.620Z,98014.00
2023-03-26T15:14:57.840Z,98003.00
2023-03-26T15:17:45.835Z,98001.00
2023-03-26T15:20:31.960Z,98000.00
2023-03-26T15:23:50.119Z,98006.00
2023-03-26T15:26:32.207Z,98000.00
2023-03-26T15:29:39.580Z,98007.00
2023-03-26T15:32:41.681Z,98009.00
2023-03-26T15:36:26.374Z,98000.00
2023-03-26T15:39:32.911Z,97993.00
2023-03-26T15:42:30.334Z,97994.00
2023-03-26T15:45:17.551Z,97997.00
2023-03-26T15:47:55.351Z,97986.00
2023-03-26T15:50:31.979Z,97991.00
2023-03-26T15:53:36.716Z,97992.00
2023-03-26T15:56:38.385Z,97996.00
2023-03-26T15:59:13.296Z,97987.00
2023-03-26T16:02:16.101Z,97985.00
2023-03-26T16:04:59.157Z,97983.00
2023-03-26T16:08:04.390Z,97984.00
2023-03-26T16:10:59.029Z,97979.00
2023-03-26T16:13:37.676Z,97971.00
2023-03-26T16:16:04.739Z,97974.00
2023-03-26T16:18:42.884Z,97971.00
2023-03-26T16:21:32.812Z,97975.00
2023-03-26T16:24:02.921Z,97981.00
2023-03-26T16:26:45.377Z,97993.00
2023-03-26T16:29:22.222Z,98001.00
2023-03-26T16:32:10.541Z,98022.00
2023-03-26T16:35:20.117Z,98023.00
2023-03-26T16:38:05.870Z,98016.00
2023-03-26T16:40:36.147Z,98014.00
2023-03-26T16:43:28.124Z,98014.00
2023-03-26T16:46:28.115Z,98008.00
2023-03-26T16:49:16.146Z,98013.00
2023-03-26T16:51:59.018Z,98002.00
2023-03-26T16:54:47.533Z,97996.00
2023-03-26T16:57:33.959Z,98003.00
2023-03-26T17:00:41.307Z,98013.00
2023-03-26T17:03:38.646Z,98024.00
2023-03-26T17:06:25.649Z,98027.00
2023-03-26T17:09:21.485Z,98034.00
2023-03-26T17:12:15.815Z,98026.00
2023-03-26T17:15:13.631Z,98037.00
2023-03-26T17:18:20.430Z,98022.00
2023-03-26T17:21:45.833Z,98030.00
2023-03-26T17:24:41.858Z,98027.00
2023-03-26T17:27:25.722Z,98035.00
2023-03-26T17:30:53.099Z,98043.00
2023-03-26T17:33:27.367Z,98041.00
2023-03-26T17:36:39.861Z,98038.00
2023-03-26T17:39:47.135Z,98047.00
2023-03-26T17:42:21.710Z,98043.00
2023-03-26T17:45:02.340Z,98050.00
2023-03-26T17:47:40.231Z,98051.00
2023-03-26T17:50:20.079Z,98046.00
2023-03-26T17:53:00.412Z,98056.00
2023-03-26T17:55:38.190Z,98047.00
2023-03-26T17:58:20.964Z,98045.00
2023-03-26T18:00:57.095Z,98036.00
2023-03-26T18:03:35.164Z,98048.00
2023-03-26T18:06:24.798Z,98059.00
2023-03-26T18:09:19.858Z,98043.00
2023-03-26T18:12:04.763Z,98045.00
2023-03-26T18:15:07.315Z,98050.00
2023-03-26T18:17:44.852Z,98048.00
2023-03-26T18:20:27.231Z,98044.00
2023-03-26T18:22:55.546Z,98050.00
2023-03-26T18:25:29.246Z,98040.00
2023-03-26T18:27:57.678Z,98046.00
2023-03-26T18:30:26.413Z,98034.00
2023-03-26T18:33:13.113Z,98031.00
2023-03-26T18:35:55.703Z,98031.00
2023-03-26T18:38:37.166Z,98035.00
2023-03-26T18:42:28.769Z,98034.00
2023-03-26T18:49:00.688Z,98027.00
2023-03-26T18:51:57.669Z,98040.00
2023-03-26T18:55:20.640Z,98027.00
2023-03-26T19:04:39.829Z,98030.00
2023-03-26T19:15:12.946Z,98018.00
2023-03-26T19:21:47.401Z,98002.00
2023-03-26T19:25:01.403Z,98009.00
2023-03-26T19:31:45.002Z,98006.00
2023-03-26T19:35:05.299Z,98000.00
2023-03-26T19:42:23.810Z,98007.00
2023-03-26T19:44:51.839Z,98009.00
2023-03-26T19:50:52.059Z,98012.00
2023-03-26T20:04:19.475Z,98025.00
2023-03-26T20:10:57.430Z,98021.00
2023-03-26T20:18:10.473Z,98009.00
2023-03-26T20:21:01.372Z,98015.00
2023-03-26T20:24:15.040Z,98027.00
2023-03-26T20:27:23.435Z,98017.00
2023-03-26T20:31:05.886Z,98029.00
2023-03-26T20:34:19.955Z,98038.00
2023-03-26T20:36:48.058Z,98049.00
2023-03-26T20:39:15.158Z,98048.00
2023-03-26T20:41:48.341Z,98049.00
2023-03-26T20:44:19.236Z,98052.00
2023-03-26T20:46:50.201Z,98055.00
2023-03-26T20:49:18.469Z,98047.00
2023-03-26T20:51:47.013Z,98053.00
2023-03-26T20:54:21.981Z,98045.00
2023-03-26T20:56:50.056Z,98053.00
2023-03-26T20:59:26.891Z,98060.00
2023-03-26T21:01:56.769Z,98064.00
2023-03-26T21:04:27.554Z,98068.00
2023-03-26T21:07:00.422Z,98068.00
2023-03-26T21:13:25.612Z,98063.00
2023-03-26T21:16:24.555Z,98062.00
2023-03-26T21:26:41.651Z,98058.00
2023-03-26T21:32:49.395Z,98062.00
2023-03-26T21:39:17.997Z,98070.00
2023-03-26T21:42:48.166Z,98066.00
2023-03-26T21:46:21.924Z,98075.00
2023-03-26T21:49:58.650Z,98071.00
2023-03-26T21:56:26.780Z,98085.00
2023-03-26T22:00:06.287Z,98089.00
2023-03-26T22:03:53.227Z,98089.00
2023-03-26T22:13:29.107Z,98093.00
2023-03-26T22:16:22.199Z,98086.00
2023-03-26T22:19:18.922Z,98088.00
2023-03-26T22:21:59.120Z,98107.00
2023-03-26T22:25:07.859Z,98109.00
2023-03-26T22:27:32.712Z,98110.00
2023-03-26T22:30:11.639Z,98110.00
2023-03-26T22:32:38.914Z,98122.00
2023-03-26T22:35:07.043Z,98122.00
2023-03-26T22:37:35.590Z,98125.00
2023-03-26T22:40:10.292Z,98131.00
2023-03-26T22:42:37.146Z,98134.00
2023-03-26T22:45:05.028Z,98137.00
2023-03-26T22:47:35.363Z,98148.00
2023-03-26T22:50:04.060Z,98160.00
2023-03-26T22:52:31.661Z,98159.00
2023-03-26T22:54:58.532Z,98168.00
2023-03-26T22:57:25.778Z,98160.00
2023-03-26T22:59:53.175Z,98168.00
2023-03-26T23:02:20.509Z,98175.00
2023-03-26T23:04:48.658Z,98187.00
2023-03-26T23:07:15.901Z,98188.00
2023-03-26T23:09:42.764Z,98203.00
2023-03-26T23:12:09.549Z,98203.00
2023-03-26T23:14:36.380Z,98210.00
2023-03-26T23:17:03.621Z,98212.00
2023-03-26T23:19:33.890Z,98220.00
2023-03-26T23:22:00.793Z,98207.00
2023-03-26T23:24:27.668Z,98211.00
2023-03-26T23:26:54.744Z,98217.00
2023-03-26T23:29:21.584Z,98213.00
2023-03-26T23:31:48.476Z,98227.00
2023-03-26T23:34:16.821Z,98234.00
2023-03-26T23:36:44.771Z,98235.00
2023-03-26T23:39:11.674Z,98236.00
2023-03-26T23:41:38.644Z,98244.00
2023-03-26T23:44:05.656Z,98256.00
2023-03-26T23:46:35.691Z,98261.00
2023-03-26T23:49:03.468Z,98254.00
2023-03-26T23:51:31.625Z,98266.00
2023-03-26T23:53:59.810Z,98261.00
2023-03-26T23:56:32.799Z,98278.00
2023-03-26T23:59:00.471Z,98279.00
